createdAt,value
2018-03-14T00:02:16.370Z,86.46
2018-03-14T00:04:44.743Z,86.47
2018-03-14T00:07:13.079Z,86.65
2018-03-14T00:09:41.435Z,86.72
2018-03-14T00:12:10.523Z,86.89
2018-03-14T00:14:39.659Z,86.78
2018-03-14T00:17:07.983Z,86.89
2018-03-14T00:19:36.558Z,87.04
2018-03-14T00:22:04.915Z,86.81
2018-03-14T00:24:33.267Z,86.89
2018-03-14T00:27:01.636Z,86.60
2018-03-14T00:29:29.967Z,86.46
2018-03-14T00:31:58.340Z,86.54
2018-03-14T00:34:26.720Z,86.69
2018-03-14T00:36:55.031Z,86.59
2018-03-14T00:39:23.356Z,86.75
2018-03-14T00:41:51.707Z,86.65
2018-03-14T00:44:20.085Z,86.85
2018-03-14T00:46:48.414Z,86.82
2018-03-14T00:49:16.797Z,86.95
2018-03-14T00:51:45.157Z,87.30
2018-03-14T00:54:13.487Z,87.47
2018-03-14T00:56:41.817Z,87.34
2018-03-14T00:59:10.177Z,87.36
2018-03-14T01:01:38.539Z,87.57
2018-03-14T01:04:06.907Z,87.40
2018-03-14T01:06:35.235Z,87.34
2018-03-14T01:09:03.603Z,87.60
2018-03-14T01:11:31.939Z,87.80
2018-03-14T01:14:00.301Z,87.93
2018-03-14T01:16:29.381Z,87.72
2018-03-14T01:18:57.701Z,87.40
2018-03-14T01:21:26.109Z,87.14
2018-03-14T01:23:54.387Z,87.27
2018-03-14T01:26:22.751Z,86.93
2018-03-14T01:28:51.083Z,87.11
2018-03-14T01:31:19.842Z,86.74
2018-03-14T01:33:48.214Z,86.29
2018-03-14T01:36:16.548Z,85.82
2018-03-14T01:38:44.873Z,85.94
2018-03-14T01:41:13.247Z,85.89
2018-03-14T01:43:41.570Z,85.22
2018-03-14T01:46:09.921Z,84.74
2018-03-14T01:48:38.255Z,84.56
2018-03-14T01:51:06.626Z,84.73
2018-03-14T01:53:34.967Z,85.03
2018-03-14T01:56:04.084Z,84.95
2018-03-14T01:58:32.442Z,84.86
2018-03-14T02:01:01.582Z,85.14
2018-03-14T02:03:29.927Z,85.50
2018-03-14T02:05:58.255Z,85.44
2018-03-14T02:08:26.623Z,85.88
2018-03-14T02:10:54.950Z,85.38
2018-03-14T02:13:24.082Z,85.48
2018-03-14T02:15:52.444Z,85.64
2018-03-14T02:18:20.885Z,85.73
2018-03-14T02:20:50.010Z,85.13
2018-03-14T02:23:19.134Z,85.15
2018-03-14T02:25:47.870Z,84.46
2018-03-14T02:28:16.321Z,84.24
2018-03-14T02:30:44.877Z,84.38
2018-03-14T02:33:13.196Z,83.39
2018-03-14T02:35:42.754Z,83.43
2018-03-14T02:38:11.306Z,83.57
2018-03-14T02:40:39.686Z,83.41
2018-03-14T02:43:08.067Z,83.62
2018-03-14T02:45:37.191Z,83.84
2018-03-14T02:48:05.566Z,84.39
2018-03-14T02:50:34.938Z,84.62
2018-03-14T02:53:04.186Z,84.57
2018-03-14T02:55:33.886Z,84.64
2018-03-14T02:58:02.753Z,85.00
2018-03-14T03:00:31.829Z,85.13
2018-03-14T03:03:00.172Z,85.32
2018-03-14T03:05:29.281Z,85.46
2018-03-14T03:07:57.666Z,85.42
2018-03-14T03:10:27.201Z,85.73
2018-03-14T03:12:56.482Z,85.70
2018-03-14T03:15:24.803Z,85.70
2018-03-14T03:17:53.159Z,85.67
2018-03-14T03:20:22.357Z,85.58
2018-03-14T03:22:51.446Z,85.77
2018-03-14T03:25:20.552Z,85.67
2018-03-14T03:27:48.884Z,85.84
2018-03-14T03:30:17.239Z,85.62
2018-03-14T03:32:45.587Z,85.43
2018-03-14T03:35:14.673Z,85.75
2018-03-14T03:37:43.822Z,85.95
2018-03-14T03:40:12.178Z,85.85
2018-03-14T03:42:40.486Z,85.84
2018-03-14T03:45:08.828Z,85.75
2018-03-14T03:47:37.142Z,85.84
2018-03-14T03:50:05.453Z,85.95
2018-03-14T03:52:34.671Z,85.85
2018-03-14T03:55:02.996Z,85.21
2018-03-14T03:57:31.365Z,85.51
2018-03-14T03:59:59.697Z,85.45
2018-03-14T04:02:28.095Z,85.29
2018-03-14T04:04:56.396Z,85.04
2018-03-14T04:07:24.922Z,85.10
2018-03-14T04:09:53.255Z,85.37
2018-03-14T04:12:21.613Z,85.14
2018-03-14T04:14:49.979Z,85.46
2018-03-14T04:17:18.414Z,85.32
2018-03-14T04:19:47.484Z,85.54
2018-03-14T04:22:15.857Z,85.37
2018-03-14T04:24:44.193Z,85.68
2018-03-14T04:27:12.618Z,85.58
2018-03-14T04:29:41.041Z,85.56
2018-03-14T04:32:10.130Z,85.71
2018-03-14T04:34:39.257Z,85.17
2018-03-14T04:37:07.951Z,84.96
2018-03-14T04:39:36.299Z,85.04
2018-03-14T04:42:04.681Z,84.86
2018-03-14T04:44:33.836Z,84.96
2018-03-14T04:47:02.729Z,84.90
2018-03-14T04:49:31.103Z,84.92
2018-03-14T04:51:59.512Z,85.00
2018-03-14T04:54:28.035Z,84.87
2018-03-14T04:56:57.273Z,85.05
2018-03-14T04:59:25.588Z,84.69
2018-03-14T05:01:53.955Z,84.86
2018-03-14T05:04:22.386Z,84.99
2018-03-14T05:06:50.703Z,84.66
2018-03-14T05:09:19.813Z,84.56
2018-03-14T05:11:48.126Z,84.61
2018-03-14T05:14:16.602Z,84.76
2018-03-14T05:16:44.925Z,84.87
2018-03-14T05:19:15.142Z,84.59
2018-03-14T05:21:44.283Z,84.37
2018-03-14T05:24:12.664Z,84.57
2018-03-14T05:26:41.197Z,84.33
2018-03-14T05:29:11.393Z,84.13
2018-03-14T05:31:39.817Z,84.30
2018-03-14T05:34:10.087Z,83.98
2018-03-14T05:36:38.440Z,83.90
2018-03-14T05:39:08.541Z,83.81
2018-03-14T05:41:37.977Z,83.54
2018-03-14T05:44:07.112Z,83.55
2018-03-14T05:46:36.411Z,83.07
2018-03-14T05:49:04.723Z,82.70
2018-03-14T05:51:34.932Z,82.71
2018-03-14T05:54:04.101Z,82.65
2018-03-14T05:56:32.424Z,82.74
2018-03-14T05:59:01.585Z,82.35
2018-03-14T06:01:30.707Z,82.04
2018-03-14T06:03:59.077Z,82.18
2018-03-14T06:06:27.512Z,82.13
2018-03-14T06:08:55.818Z,82.29
2018-03-14T06:11:24.976Z,82.16
2018-03-14T06:13:53.328Z,81.84
2018-03-14T06:16:21.781Z,81.79
2018-03-14T06:18:50.964Z,81.77
2018-03-14T06:21:19.404Z,81.71
2018-03-14T06:23:48.761Z,81.73
2018-03-14T06:26:17.853Z,81.49
2018-03-14T06:28:46.959Z,81.20
2018-03-14T06:31:15.863Z,81.15
2018-03-14T06:33:44.989Z,80.80
2018-03-14T06:36:13.309Z,80.36
2018-03-14T06:38:41.839Z,79.80
2018-03-14T06:41:10.272Z,79.27
2018-03-14T06:43:39.351Z,78.28
2018-03-14T06:46:07.695Z,77.33
2018-03-14T06:48:36.050Z,77.08
2018-03-14T06:51:04.367Z,77.50
2018-03-14T06:53:32.729Z,78.03
2018-03-14T06:56:01.077Z,77.94
2018-03-14T06:58:47.032Z,77.92
2018-03-14T07:04:39.360Z,77.52
2018-03-14T07:07:07.709Z,76.91
2018-03-14T07:09:36.027Z,76.86
2018-03-14T07:12:04.380Z,76.93
2018-03-14T07:14:32.692Z,76.39
2018-03-14T07:17:01.026Z,76.13
2018-03-14T07:19:29.335Z,76.27
2018-03-14T07:21:57.698Z,76.44
2018-03-14T07:24:26.002Z,76.39
2018-03-14T07:26:54.359Z,76.12
2018-03-14T07:29:22.673Z,75.31
2018-03-14T07:31:51.800Z,74.79
2018-03-14T07:34:20.144Z,74.90
2018-03-14T07:36:49.277Z,74.82
2018-03-14T07:39:17.614Z,74.89
2018-03-14T07:41:46.748Z,75.10
2018-03-14T07:44:15.080Z,74.94
2018-03-14T07:46:43.955Z,75.17
2018-03-14T07:49:12.295Z,75.18
2018-03-14T07:51:40.614Z,74.40
2018-03-14T07:54:08.960Z,73.63
2018-03-14T07:56:37.280Z,73.30
2018-03-14T07:59:06.400Z,72.94
2018-03-14T08:01:34.702Z,72.63
2018-03-14T08:04:03.068Z,72.60
2018-03-14T08:06:31.404Z,72.60
2018-03-14T08:08:59.760Z,72.83
2018-03-14T08:11:28.098Z,72.50
2018-03-14T08:13:56.482Z,72.23
2018-03-14T08:16:24.803Z,72.37
2018-03-14T08:18:53.148Z,71.99
2018-03-14T08:21:21.463Z,72.14
2018-03-14T08:23:49.818Z,72.35
2018-03-14T08:26:18.135Z,72.57
2018-03-14T08:28:47.236Z,72.72
2018-03-14T08:31:16.348Z,73.16
2018-03-14T08:33:44.665Z,73.72
2018-03-14T08:36:13.017Z,73.00
2018-03-14T08:38:41.332Z,72.33
2018-03-14T08:41:09.694Z,71.08
2018-03-14T08:43:38.049Z,69.90
2018-03-14T08:46:06.375Z,69.63
2018-03-14T08:48:34.730Z,70.14
2018-03-14T08:51:03.048Z,70.35
2018-03-14T08:53:32.142Z,68.91
2018-03-14T08:56:01.230Z,68.46
2018-03-14T08:58:30.355Z,67.59
2018-03-14T09:00:58.680Z,67.28
2018-03-14T09:03:26.992Z,67.15
2018-03-14T09:05:56.115Z,67.55
2018-03-14T09:08:24.419Z,67.32
2018-03-14T09:10:52.761Z,67.32
2018-03-14T09:13:21.068Z,67.27
2018-03-14T09:15:49.423Z,66.15
2018-03-14T09:18:17.735Z,64.58
2018-03-14T09:20:46.083Z,64.95
2018-03-14T09:23:14.411Z,65.33
2018-03-14T09:25:42.705Z,64.59
2018-03-14T09:28:11.042Z,64.35
2018-03-14T09:30:39.384Z,64.04
2018-03-14T09:33:07.715Z,62.58
2018-03-14T09:35:36.059Z,63.10
2018-03-14T09:38:04.375Z,63.06
2018-03-14T09:40:33.496Z,63.29
2018-03-14T09:43:01.859Z,64.58
2018-03-14T09:45:30.979Z,64.12
2018-03-14T09:47:59.287Z,64.41
2018-03-14T09:50:27.632Z,63.66
2018-03-14T09:52:55.960Z,63.37
2018-03-14T09:55:24.322Z,63.80
2018-03-14T09:57:52.627Z,64.32
2018-03-14T10:00:21.739Z,62.95
2018-03-14T10:02:50.061Z,62.03
2018-03-14T10:05:18.415Z,60.88
2018-03-14T10:07:46.746Z,60.83
2018-03-14T10:10:15.093Z,60.35
2018-03-14T10:12:43.403Z,60.50
2018-03-14T10:15:11.726Z,61.03
2018-03-14T10:17:40.080Z,61.23
2018-03-14T10:20:08.405Z,61.31
2018-03-14T10:22:36.755Z,61.19
2018-03-14T10:25:05.045Z,62.00
2018-03-14T10:27:33.391Z,62.82
2018-03-14T10:30:01.710Z,62.37
2018-03-14T10:32:30.059Z,62.11
2018-03-14T10:34:58.429Z,62.08
2018-03-14T10:37:26.720Z,61.13
2018-03-14T10:39:55.022Z,60.81
2018-03-14T10:42:23.371Z,60.83
2018-03-14T10:44:51.685Z,60.27
2018-03-14T10:47:20.015Z,59.15
2018-03-14T10:49:48.344Z,58.88
2018-03-14T10:52:16.666Z,58.25
2018-03-14T10:54:44.998Z,57.34
2018-03-14T10:57:13.408Z,56.15
2018-03-14T10:59:42.528Z,55.60
2018-03-14T11:02:15.789Z,55.79
2018-03-14T11:04:44.894Z,54.66
2018-03-14T11:07:13.977Z,54.38
2018-03-14T11:09:43.094Z,54.69
2018-03-14T11:12:11.818Z,55.04
2018-03-14T11:14:40.132Z,54.94
2018-03-14T11:17:09.246Z,55.45
2018-03-14T11:19:37.610Z,55.93
2018-03-14T11:22:06.706Z,56.37
2018-03-14T11:24:35.002Z,56.04
2018-03-14T11:27:03.351Z,55.71
2018-03-14T11:29:32.424Z,55.23
2018-03-14T11:32:00.766Z,55.19
2018-03-14T11:34:29.084Z,55.41
2018-03-14T11:36:57.430Z,55.39
2018-03-14T11:39:25.774Z,55.40
2018-03-14T11:41:54.855Z,55.55
2018-03-14T11:44:23.961Z,55.98
2018-03-14T11:46:52.300Z,57.11
2018-03-14T11:49:20.634Z,57.24
2018-03-14T11:51:48.952Z,57.00
2018-03-14T11:54:17.298Z,57.78
2018-03-14T11:56:45.622Z,57.78
2018-03-14T11:59:13.984Z,57.65
2018-03-14T12:01:42.300Z,58.13
2018-03-14T12:04:11.425Z,58.02
2018-03-14T12:06:39.747Z,58.24
2018-03-14T12:09:08.104Z,57.76
2018-03-14T12:11:36.408Z,57.53
2018-03-14T12:14:04.723Z,57.03
2018-03-14T12:16:33.057Z,56.75
2018-03-14T12:19:01.359Z,57.15
2018-03-14T12:21:30.478Z,56.81
2018-03-14T12:23:58.785Z,56.83
2018-03-14T12:26:27.133Z,56.96
2018-03-14T12:28:55.437Z,56.82
2018-03-14T12:31:23.776Z,56.57
2018-03-14T12:33:52.094Z,56.58
2018-03-14T12:36:20.430Z,56.58
2018-03-14T12:38:48.751Z,56.56
2018-03-14T12:41:17.080Z,56.45
2018-03-14T12:43:45.394Z,56.06
2018-03-14T12:46:13.756Z,55.25
2018-03-14T12:48:42.097Z,55.85
2018-03-14T12:51:11.212Z,56.50
2018-03-14T12:53:39.606Z,57.08
2018-03-14T12:56:07.922Z,56.67
2018-03-14T12:58:36.272Z,56.96
2018-03-14T13:01:04.582Z,56.78
2018-03-14T13:03:32.958Z,57.22
2018-03-14T13:06:01.283Z,57.09
2018-03-14T13:08:29.632Z,57.57
2018-03-14T13:10:58.713Z,58.04
2018-03-14T13:13:27.011Z,57.52
2018-03-14T13:15:56.133Z,58.31
2018-03-14T13:18:24.443Z,58.55
2018-03-14T13:20:52.765Z,58.80
2018-03-14T13:23:21.118Z,59.22
2018-03-14T13:25:49.481Z,59.37
2018-03-14T13:28:17.781Z,60.37
2018-03-14T13:30:46.864Z,60.84
2018-03-14T13:33:15.244Z,61.54
2018-03-14T13:35:43.572Z,61.93
2018-03-14T13:38:11.993Z,62.10
2018-03-14T13:40:40.296Z,62.65
2018-03-14T13:43:09.425Z,63.14
2018-03-14T13:45:37.775Z,63.37
2018-03-14T13:48:06.099Z,63.48
2018-03-14T13:50:34.456Z,64.00
2018-03-14T13:53:02.809Z,64.87
2018-03-14T13:55:31.151Z,64.33
2018-03-14T13:57:59.463Z,63.93
2018-03-14T14:00:28.574Z,63.22
2018-03-14T14:02:56.891Z,62.78
2018-03-14T14:05:25.252Z,62.04
2018-03-14T14:07:54.336Z,61.38
2018-03-14T14:10:23.042Z,61.38
2018-03-14T14:12:52.257Z,60.98
2018-03-14T14:15:20.613Z,61.42
2018-03-14T14:17:48.939Z,60.68
2018-03-14T14:20:18.010Z,60.75
2018-03-14T14:22:46.381Z,60.87
2018-03-14T14:25:14.687Z,61.42
2018-03-14T14:27:42.997Z,61.48
2018-03-14T14:30:11.366Z,61.82
2018-03-14T14:32:39.711Z,61.95
2018-03-14T14:35:08.792Z,62.45
2018-03-14T14:37:37.140Z,63.00
2018-03-14T14:40:05.501Z,63.47
2018-03-14T14:42:34.629Z,63.62
2018-03-14T14:45:02.940Z,63.40
2018-03-14T14:47:31.295Z,63.51
2018-03-14T14:49:59.590Z,63.36
2018-03-14T14:52:28.688Z,63.47
2018-03-14T14:54:57.796Z,63.28
2018-03-14T14:57:26.109Z,63.55
2018-03-14T14:59:54.737Z,64.01
2018-03-14T15:02:23.816Z,64.29
2018-03-14T15:04:52.169Z,64.00
2018-03-14T15:07:20.477Z,63.72
2018-03-14T15:09:48.824Z,63.74
2018-03-14T15:12:17.137Z,64.00
2018-03-14T15:14:46.257Z,64.12
2018-03-14T15:17:14.599Z,64.44
2018-03-14T15:19:42.947Z,64.67
2018-03-14T15:22:11.284Z,65.15
2018-03-14T15:24:39.609Z,64.49
2018-03-14T15:27:07.961Z,64.37
2018-03-14T15:29:37.095Z,63.72
2018-03-14T15:32:05.445Z,62.78
2018-03-14T15:34:33.772Z,63.42
2018-03-14T15:37:02.893Z,63.42
2018-03-14T15:39:31.210Z,63.45
2018-03-14T15:41:59.569Z,63.19
2018-03-14T15:44:27.895Z,63.48
2018-03-14T15:46:56.241Z,63.88
2018-03-14T15:49:24.553Z,64.29
2018-03-14T15:51:54.050Z,64.38
2018-03-14T15:54:22.382Z,64.68
2018-03-14T15:56:50.730Z,64.76
2018-03-14T15:59:19.677Z,64.87
2018-03-14T16:01:48.362Z,64.90
2018-03-14T16:04:16.720Z,64.85
2018-03-14T16:06:45.789Z,64.76
2018-03-14T16:09:15.370Z,64.76
2018-03-14T16:11:44.483Z,65.23
2018-03-14T16:14:12.844Z,65.69
2018-03-14T16:16:41.934Z,66.15
2018-03-14T16:19:11.112Z,66.50
2018-03-14T16:21:39.423Z,67.18
2018-03-14T16:24:08.714Z,67.49
2018-03-14T16:26:38.199Z,68.00
2018-03-14T16:29:06.560Z,68.49
2018-03-14T16:31:34.952Z,68.97
2018-03-14T16:34:03.610Z,69.52
2018-03-14T16:36:31.937Z,69.90
2018-03-14T16:39:27.009Z,70.18
2018-03-14T16:41:55.488Z,70.64
2018-03-14T16:44:29.619Z,70.94
2018-03-14T16:46:59.107Z,71.25
2018-03-14T16:49:27.555Z,71.53
2018-03-14T16:52:09.058Z,71.70
2018-03-14T16:54:37.408Z,71.96
2018-03-14T16:57:06.982Z,72.33
2018-03-14T16:59:36.527Z,72.52
2018-03-14T17:02:06.316Z,72.61
2018-03-14T17:04:34.773Z,72.95
2018-03-14T17:07:03.130Z,73.33
2018-03-14T17:09:32.294Z,73.56
2018-03-14T17:12:00.932Z,73.83
2018-03-14T17:14:30.776Z,74.12
2018-03-14T17:17:02.286Z,74.49
2018-03-14T17:19:31.824Z,74.72
2018-03-14T17:22:00.294Z,74.86
2018-03-14T17:24:29.516Z,75.22
2018-03-14T17:26:57.843Z,75.21
2018-03-14T17:29:26.595Z,75.63
2018-03-14T17:31:54.936Z,75.61
2018-03-14T17:34:23.323Z,75.61
2018-03-14T17:36:54.137Z,75.51
2018-03-14T17:39:22.492Z,75.34
2018-03-14T17:41:50.803Z,75.65
2018-03-14T17:44:19.945Z,75.82
2018-03-14T17:46:49.510Z,76.51
2018-03-14T17:49:19.376Z,76.56
2018-03-14T17:51:48.507Z,76.39
2018-03-14T17:54:17.628Z,76.24
2018-03-14T17:56:47.330Z,76.27
2018-03-14T17:59:15.683Z,76.37
2018-03-14T18:01:44.051Z,76.62
2018-03-14T18:04:13.000Z,76.87
2018-03-14T18:06:42.125Z,76.79
2018-03-14T18:09:10.611Z,76.73
2018-03-14T18:11:39.936Z,76.97
2018-03-14T18:14:09.018Z,77.18
2018-03-14T18:16:39.051Z,77.11
2018-03-14T18:19:07.827Z,76.95
2018-03-14T18:21:36.204Z,76.83
2018-03-14T18:24:04.537Z,77.15
2018-03-14T18:26:33.110Z,77.20
2018-03-14T18:29:01.986Z,77.35
2018-03-14T18:31:30.703Z,77.38
2018-03-14T18:33:59.148Z,77.60
2018-03-14T18:36:27.466Z,77.75
2018-03-14T18:38:55.851Z,77.68
2018-03-14T18:41:24.184Z,77.75
2018-03-14T18:43:52.542Z,78.02
2018-03-14T18:46:21.674Z,77.98
2018-03-14T18:48:50.005Z,78.24
2018-03-14T18:51:19.127Z,78.02
2018-03-14T18:53:47.451Z,77.94
2018-03-14T18:56:16.730Z,78.19
2018-03-14T18:58:45.106Z,77.90
2018-03-14T19:01:13.470Z,78.04
2018-03-14T19:03:41.860Z,78.49
2018-03-14T19:06:10.213Z,78.56
2018-03-14T19:08:38.530Z,78.48
2018-03-14T19:11:07.060Z,78.62
2018-03-14T19:13:35.490Z,78.66
2018-03-14T19:16:03.805Z,78.98
2018-03-14T19:18:33.540Z,79.49
2018-03-14T19:21:02.111Z,80.07
2018-03-14T19:23:31.249Z,80.66
2018-03-14T19:25:59.555Z,80.90
2018-03-14T19:28:28.577Z,81.25
2018-03-14T19:30:57.768Z,81.28
2018-03-14T19:33:26.860Z,80.52
2018-03-14T19:35:56.599Z,80.73
2018-03-14T19:38:24.932Z,80.55
2018-03-14T19:40:53.269Z,81.07
2018-03-14T19:43:23.235Z,81.57
2018-03-14T19:45:53.286Z,81.80
2018-03-14T19:48:21.873Z,82.08
2018-03-14T19:50:51.638Z,82.24
2018-03-14T19:53:20.830Z,82.40
2018-03-14T19:55:49.206Z,82.60
2018-03-14T19:58:18.422Z,82.72
2018-03-14T20:00:49.144Z,82.58
2018-03-14T20:03:17.928Z,82.74
2018-03-14T20:05:47.060Z,82.63
2018-03-14T20:08:16.317Z,82.94
2018-03-14T20:10:44.658Z,82.74
2018-03-14T20:13:14.468Z,82.94
2018-03-14T20:15:42.871Z,82.68
2018-03-14T20:18:11.206Z,82.60
2018-03-14T20:20:41.553Z,82.77
2018-03-14T20:23:10.002Z,82.74
2018-03-14T20:25:40.203Z,82.52
2018-03-14T20:28:08.541Z,82.43
2018-03-14T20:30:36.943Z,82.48
2018-03-14T20:33:05.937Z,82.33
2018-03-14T20:35:34.279Z,82.36
2018-03-14T20:38:02.811Z,82.21
2018-03-14T20:40:31.136Z,82.27
2018-03-14T20:43:01.734Z,82.31
2018-03-14T20:45:31.277Z,82.50
2018-03-14T20:48:00.635Z,82.52
2018-03-14T20:50:30.509Z,82.46
2018-03-14T20:52:58.858Z,82.42
2018-03-14T20:55:28.424Z,82.29
2018-03-14T20:57:57.603Z,82.17
2018-03-14T21:00:26.397Z,82.18
2018-03-14T21:02:54.792Z,82.08
2018-03-14T21:05:24.178Z,82.18
2018-03-14T21:07:52.811Z,82.04
2018-03-14T21:10:23.230Z,81.86
2018-03-14T21:12:53.890Z,81.99
2018-03-14T21:15:22.775Z,82.08
2018-03-14T21:17:51.874Z,82.08
2018-03-14T21:20:20.493Z,82.00
2018-03-14T21:22:48.885Z,81.96
2018-03-14T21:25:18.894Z,81.90
2018-03-14T21:27:49.904Z,81.98
2018-03-14T21:30:18.261Z,82.02
2018-03-14T21:32:48.226Z,81.92
2018-03-14T21:35:18.212Z,81.89
2018-03-14T21:37:46.625Z,81.66
2018-03-14T21:40:16.436Z,81.54
2018-03-14T21:42:45.644Z,81.42
2018-03-14T21:45:15.101Z,81.56
2018-03-14T21:47:44.271Z,81.74
2018-03-14T21:50:12.837Z,81.66
2018-03-14T21:52:41.871Z,81.28
2018-03-14T21:55:10.836Z,81.40
2018-03-14T21:57:41.521Z,81.78
2018-03-14T22:00:10.635Z,81.96
2018-03-14T22:02:39.596Z,82.23
2018-03-14T22:05:08.521Z,82.17
2018-03-14T22:07:37.684Z,82.27
2018-03-14T22:10:06.784Z,82.38
2018-03-14T22:12:35.769Z,82.29
2018-03-14T22:15:05.472Z,81.95
2018-03-14T22:17:34.385Z,82.12
2018-03-14T22:20:02.961Z,82.40
2018-03-14T22:22:32.175Z,82.50
2018-03-14T22:25:01.217Z,82.50
2018-03-14T22:27:30.721Z,82.63
2018-03-14T22:29:59.037Z,82.72
2018-03-14T22:32:27.493Z,82.85
2018-03-14T22:34:56.692Z,82.86
2018-03-14T22:37:25.093Z,82.99
2018-03-14T22:39:53.501Z,83.19
2018-03-14T22:42:21.848Z,83.06
2018-03-14T22:44:50.601Z,83.13
2018-03-14T22:47:18.950Z,83.03
2018-03-14T22:49:48.624Z,82.80
2018-03-14T22:52:17.134Z,83.12
2018-03-14T22:54:47.353Z,83.19
2018-03-14T22:57:16.485Z,83.27
2018-03-14T22:59:45.588Z,83.30
2018-03-14T23:02:14.843Z,83.18
2018-03-14T23:04:43.909Z,82.83
2018-03-14T23:07:12.407Z,82.95
2018-03-14T23:09:41.532Z,83.18
2018-03-14T23:12:10.035Z,83.16
2018-03-14T23:14:38.377Z,83.34
2018-03-14T23:17:07.451Z,83.35
2018-03-14T23:19:35.791Z,83.46
2018-03-14T23:22:05.187Z,83.51
2018-03-14T23:24:33.555Z,83.48
2018-03-14T23:27:02.712Z,83.40
2018-03-14T23:29:32.220Z,83.37
2018-03-14T23:32:02.130Z,83.61
2018-03-14T23:34:32.020Z,83.68
2018-03-14T23:37:00.376Z,83.48
2018-03-14T23:39:28.698Z,83.35
2018-03-14T23:41:57.775Z,83.33
2018-03-14T23:44:26.105Z,83.22
2018-03-14T23:46:54.671Z,83.05
2018-03-14T23:49:23.176Z,83.08
2018-03-14T23:51:51.919Z,82.96
2018-03-14T23:54:21.932Z,83.24
2018-03-14T23:56:50.328Z,83.37
2018-03-14T23:59:19.656Z,83.38
